Terminal Aerodrome Forecast
Issued by NWS

Home | Current Version | Previous Version | Text Only | Print | Product List | Glossary Off
Versions: 1 2 3 4 5 6 7 8 9 10 11 12 13 14 15 16 17 18

000
FTUS43 KTOP 220532
TAFMHK
TAF
KMHK 220532Z 2206/2306 29004KT P6SM SCT120
     FM221100 28010KT 5SM -RASN BR OVC010
     FM221500 30017G24KT 3SM -RASN BR OVC010
     FM222200 32014G22KT P6SM BKN020
     FM230300 31011KT P6SM SCT030=

USA.gov is the U.S. government's official web portal to all federal, state and local government web resources and services.